Potomac, Maryland
Current Conditions -  °F | °C
As of 5:35 AM on Sunday 26 Oct 2014 (Local Time) from KGAI Reporting Station
Clear Clear  
Wind Chill: 55°   Ceiling: Unl
Heat Index: 55°   Visibility: 10mi
Dew Point: 36°   Wind: 9mph
Humidity: 47%   Direction: 300°WNW
Pressure: 29.77"   Gusts: NA
Location:  39.02°N, 77.21°W
Report Text: KGAI 260935Z 30008KT 10SM CLR 13/02 A2977 RMK AO1
Loading
Personal Weather Stations






























Interactive Weather Map
Tropical Storm Tracking
New forecast layout! Learn more

10-Day Weather Forecast

Advertisements
Track Severe Weather on mobile